Main page
METAR-TAF:

METAR-TAF

Airports :

Imperatriz Airport

Imperatriz, Maranhão, Brazil

latitude: 05-32S, longitude: 047-30W, elevation: 123 m

Current weather observation

The report was made 7 hours and 41 minutes ago, at 20:00 UTC
Wind 9 kt from the East/Northeast
Temperature 33°C
Humidity 36%
Pressure 1011 hPa
Visibility 10 km or more
Broken clouds at a height of 4000 ft

METAR: SBIZ 172000Z 07009KT 9999 BKN040 33/16 Q1011

Time: 00:41 (03:41 UTC)

Forecast

The report was made 6 hours and 41 minutes ago, at 21:00 UTC
Forecast valid from 18 at 00 UTC to 18 at 12 UTC
Wind kt from the North
Visibility 10 km or more
no clouds below 1500 m and no cumulonimbus
Becoming
from 18 at 10 UTC to 18 at 12 UTC
Wind 10 kt from the East

TAF: SBIZ 172100Z 1800/1812 00000KT CAVOK TN20/1809Z TX28/1812Z BECMG 1810/1812 09010KT RMK PHI

Weather observations and forecasts of more than 4000 airports (METAR and TAF reports).

The available stations are represented by yellow and red dots on the map.

Hover mouse over dot to see the name of the station.

Then click to see weather observations and forecasts.

To change the map : click on the green buttons with a black cross to zoom in, on the green button with a dash to zoom out, or on the green arrows for adjacent maps.


METAR-TAF: